createdAt,value
2018-01-04T00:00:04.872Z,4.70
2018-01-04T00:02:34.849Z,4.70
2018-01-04T00:05:01.466Z,4.70
2018-01-04T00:07:28.740Z,4.70
2018-01-04T00:09:56.016Z,4.70
2018-01-04T00:12:23.219Z,4.70
2018-01-04T00:14:49.746Z,4.60
2018-01-04T00:17:17.041Z,4.60
2018-01-04T00:19:43.517Z,4.60
2018-01-04T00:22:13.001Z,4.60
2018-01-04T00:24:40.275Z,4.50
2018-01-04T00:27:07.550Z,4.50
2018-01-04T00:29:34.882Z,4.40
2018-01-04T00:32:01.376Z,4.40
2018-01-04T00:34:28.575Z,4.40
2018-01-04T00:36:55.051Z,4.40
2018-01-04T00:39:21.547Z,4.30
2018-01-04T00:41:48.848Z,4.30
2018-01-04T00:44:16.121Z,4.30
2018-01-04T00:46:42.882Z,4.30
2018-01-04T00:49:09.440Z,4.30
2018-01-04T00:51:36.713Z,4.30
2018-01-04T00:54:03.976Z,4.20
2018-01-04T00:56:31.263Z,4.30
2018-01-04T00:58:58.543Z,4.30
2018-01-04T01:01:25.031Z,4.30
2018-01-04T01:03:52.576Z,4.30
2018-01-04T01:06:19.849Z,4.30
2018-01-04T01:08:47.067Z,4.40
2018-01-04T01:11:14.938Z,4.30
2018-01-04T01:13:41.474Z,4.40
2018-01-04T01:16:07.921Z,4.40
2018-01-04T01:18:35.117Z,4.40
2018-01-04T01:21:01.605Z,4.40
2018-01-04T01:23:28.111Z,4.40
2018-01-04T01:25:55.386Z,4.30
2018-01-04T01:28:23.277Z,4.30
2018-01-04T01:30:49.836Z,4.30
2018-01-04T01:33:17.066Z,4.20
2018-01-04T01:35:43.676Z,4.20
2018-01-04T01:38:10.128Z,4.20
2018-01-04T01:40:36.681Z,4.20
2018-01-04T01:43:03.239Z,4.20
2018-01-04T01:45:30.991Z,4.20
2018-01-04T01:47:57.584Z,4.20
2018-01-04T01:50:24.861Z,4.20
2018-01-04T01:52:51.332Z,4.20
2018-01-04T01:55:18.791Z,4.20
2018-01-04T01:57:46.072Z,4.20
2018-01-04T02:00:12.629Z,4.20
2018-01-04T02:02:39.093Z,4.20
2018-01-04T02:05:05.643Z,4.20
2018-01-04T02:07:32.915Z,4.30
2018-01-04T02:10:00.231Z,4.30
2018-01-04T02:12:27.373Z,4.30
2018-01-04T02:14:53.922Z,4.30
2018-01-04T02:17:30.872Z,4.30
2018-01-04T02:20:09.746Z,4.30
2018-01-04T02:22:46.988Z,4.30
2018-01-04T02:25:25.769Z,4.30
2018-01-04T02:28:05.318Z,4.30
2018-01-04T02:30:43.844Z,4.30
2018-01-04T02:33:22.572Z,4.30
2018-01-04T02:36:01.992Z,4.40
2018-01-04T02:38:40.744Z,4.40
2018-01-04T02:41:20.205Z,4.40
2018-01-04T02:44:01.578Z,4.40
2018-01-04T02:46:28.790Z,4.40
2018-01-04T02:48:56.341Z,4.40
2018-01-04T02:51:22.894Z,4.40
2018-01-04T02:53:49.337Z,4.50
2018-01-04T02:56:16.524Z,4.50
2018-01-04T02:58:43.052Z,4.40
2018-01-04T03:01:09.536Z,4.50
2018-01-04T03:05:15.068Z,4.50
2018-01-04T03:07:41.560Z,4.50
2018-01-04T03:10:08.025Z,4.50
2018-01-04T03:12:34.487Z,4.50
2018-01-04T03:15:00.961Z,4.50
2018-01-04T03:17:27.463Z,4.50
2018-01-04T03:19:54.654Z,4.50
2018-01-04T03:22:27.188Z,4.50
2018-01-04T03:25:12.576Z,4.50
2018-01-04T03:27:45.104Z,4.50
2018-01-04T03:30:18.473Z,4.50
2018-01-04T03:32:51.068Z,4.50
2018-01-04T03:35:23.669Z,4.50
2018-01-04T03:37:56.268Z,4.50
2018-01-04T03:40:28.954Z,4.50
2018-01-04T03:43:01.504Z,4.40
2018-01-04T03:45:34.080Z,4.50
2018-01-04T03:48:06.648Z,4.50
2018-01-04T03:50:40.180Z,4.50
2018-01-04T03:53:13.449Z,4.50
2018-01-04T03:55:46.087Z,4.50
2018-01-04T03:58:12.639Z,4.50
2018-01-04T04:00:45.903Z,4.50
2018-01-04T04:03:12.511Z,4.40
2018-01-04T04:05:45.052Z,4.40
2018-01-04T04:08:17.672Z,4.40
2018-01-04T04:10:44.352Z,4.40
2018-01-04T04:13:11.626Z,4.30
2018-01-04T04:15:38.902Z,4.30
2018-01-04T04:18:05.460Z,4.30
2018-01-04T04:20:32.735Z,4.30
2018-01-04T04:22:59.937Z,4.30
2018-01-04T04:25:26.468Z,4.30
2018-01-04T04:27:53.024Z,4.30
2018-01-04T04:30:20.298Z,4.30
2018-01-04T04:32:47.504Z,4.30
2018-01-04T04:35:13.972Z,4.30
2018-01-04T04:37:40.486Z,4.30
2018-01-04T04:40:08.377Z,4.30
2018-01-04T04:42:34.855Z,4.30
2018-01-04T04:45:01.387Z,4.30
2018-01-04T04:47:28.663Z,4.40
2018-01-04T04:49:55.938Z,4.40
2018-01-04T04:52:23.212Z,4.40
2018-01-04T04:54:50.486Z,4.40
2018-01-04T04:57:17.044Z,4.30
2018-01-04T04:59:44.319Z,4.30
2018-01-04T05:02:11.530Z,4.30
2018-01-04T05:04:38.049Z,4.30
2018-01-04T05:07:04.609Z,4.30
2018-01-04T05:09:31.166Z,4.30
2018-01-04T05:11:59.364Z,4.40
2018-01-04T05:14:25.920Z,4.40
2018-01-04T05:16:53.194Z,4.40
2018-01-04T05:19:20.469Z,4.40
2018-01-04T05:21:47.669Z,4.50
2018-01-04T05:24:14.199Z,4.40
2018-01-04T05:26:41.473Z,4.50
2018-01-04T05:29:08.747Z,4.50
2018-01-04T05:31:36.098Z,4.50
2018-01-04T05:34:02.684Z,4.50
2018-01-04T05:36:29.908Z,4.50
2018-01-04T05:38:56.383Z,4.50
2018-01-04T05:41:22.872Z,4.50
2018-01-04T05:43:50.073Z,4.50
2018-01-04T05:46:17.499Z,4.50
2018-01-04T05:48:44.757Z,4.50
2018-01-04T05:51:11.804Z,4.50
2018-01-04T05:53:38.427Z,4.50
2018-01-04T05:56:04.922Z,4.50
2018-01-04T05:58:31.470Z,4.60
2018-01-04T06:00:57.998Z,4.50
2018-01-04T06:03:25.178Z,4.50
2018-01-04T06:05:51.729Z,4.50
2018-01-04T06:08:18.931Z,4.50
2018-01-04T06:10:45.460Z,4.50
2018-01-04T06:13:12.736Z,4.50
2018-01-04T06:15:39.220Z,4.50
2018-01-04T06:18:05.748Z,4.50
2018-01-04T06:20:33.032Z,4.50
2018-01-04T06:22:59.580Z,4.50
2018-01-04T06:25:26.789Z,4.50
2018-01-04T06:27:53.618Z,4.50
2018-01-04T06:30:20.177Z,4.50
2018-01-04T06:32:47.395Z,4.50
2018-01-04T06:35:13.910Z,4.50
2018-01-04T06:37:40.386Z,4.50
2018-01-04T06:40:07.560Z,4.50
2018-01-04T06:42:34.752Z,4.50
2018-01-04T06:45:01.985Z,4.60
2018-01-04T06:50:00.765Z,4.60
2018-01-04T06:52:27.193Z,4.60
2018-01-04T06:54:53.677Z,4.70
2018-01-04T06:57:20.137Z,4.70
2018-01-04T06:59:46.590Z,4.70
2018-01-04T07:02:13.104Z,4.70
2018-01-04T07:04:41.075Z,4.70
2018-01-04T07:07:07.538Z,4.70
2018-01-04T07:09:34.771Z,4.80
2018-01-04T07:12:01.241Z,4.80
2018-01-04T07:14:27.730Z,4.80
2018-01-04T07:16:54.971Z,4.80
2018-01-04T07:19:21.460Z,4.80
2018-01-04T07:21:48.699Z,4.80
2018-01-04T07:24:15.142Z,4.80
2018-01-04T07:26:41.616Z,4.80
2018-01-04T07:29:08.132Z,4.90
2018-01-04T07:31:34.609Z,4.90
2018-01-04T07:34:01.089Z,4.90
2018-01-04T07:36:27.573Z,4.90
2018-01-04T07:38:54.777Z,4.90
2018-01-04T07:41:21.256Z,4.90
2018-01-04T07:43:47.744Z,4.80
2018-01-04T07:46:14.232Z,4.80
2018-01-04T07:48:40.742Z,4.80
2018-01-04T07:51:07.204Z,4.80
2018-01-04T07:53:33.667Z,4.80
2018-01-04T07:56:00.122Z,4.80
2018-01-04T07:58:26.607Z,4.80
2018-01-04T08:00:54.345Z,4.80
2018-01-04T08:03:20.854Z,4.80
2018-01-04T08:05:48.677Z,4.80
2018-01-04T08:08:15.302Z,4.80
2018-01-04T08:10:42.680Z,4.80
2018-01-04T08:13:09.953Z,4.80
2018-01-04T08:15:37.179Z,4.90
2018-01-04T08:18:03.785Z,4.90
2018-01-04T08:20:31.061Z,4.90
2018-01-04T08:22:58.341Z,4.90
2018-01-04T08:25:24.894Z,5.00
2018-01-04T08:27:51.454Z,5.00
2018-01-04T08:30:18.016Z,5.00
2018-01-04T08:32:44.568Z,5.00
2018-01-04T08:35:11.798Z,5.00
2018-01-04T08:37:38.280Z,5.00
2018-01-04T08:40:04.751Z,5.10
2018-01-04T08:42:32.029Z,5.20
2018-01-04T08:44:59.304Z,5.20
2018-01-04T08:47:26.499Z,5.20
2018-01-04T08:49:52.994Z,5.20
2018-01-04T08:52:19.486Z,5.20
2018-01-04T08:54:46.699Z,5.20
2018-01-04T08:57:13.332Z,5.20
2018-01-04T08:59:39.883Z,5.20
2018-01-04T09:02:07.131Z,5.20
2018-01-04T09:04:33.615Z,5.20
2018-01-04T09:07:00.891Z,5.20
2018-01-04T09:09:27.505Z,5.20
2018-01-04T09:11:57.686Z,5.30
2018-01-04T09:14:25.065Z,5.30
2018-01-04T09:16:51.629Z,5.30
2018-01-04T09:19:18.180Z,5.30
2018-01-04T09:21:45.456Z,5.30
2018-01-04T09:24:12.006Z,5.30
2018-01-04T09:26:39.287Z,5.30
2018-01-04T09:29:06.562Z,5.30
2018-01-04T09:31:33.940Z,5.30
2018-01-04T09:34:01.137Z,5.30
2018-01-04T09:36:27.671Z,5.30
2018-01-04T09:38:55.064Z,5.40
2018-01-04T09:41:21.605Z,5.40
2018-01-04T09:43:48.879Z,5.40
2018-01-04T09:46:16.057Z,5.40
2018-01-04T09:48:43.428Z,5.30
2018-01-04T09:51:10.702Z,5.40
2018-01-04T09:53:37.918Z,5.40
2018-01-04T09:56:04.432Z,5.40
2018-01-04T09:58:31.812Z,5.40
2018-01-04T10:00:58.369Z,5.40
2018-01-04T10:03:25.643Z,5.30
2018-01-04T10:05:52.917Z,5.40
2018-01-04T10:08:20.128Z,5.40
2018-01-04T10:10:46.588Z,5.40
2018-01-04T10:13:13.106Z,5.40
2018-01-04T10:15:39.614Z,5.40
2018-01-04T10:18:06.717Z,5.50
2018-01-04T10:20:34.006Z,5.50
2018-01-04T10:23:01.284Z,5.50
2018-01-04T10:25:28.555Z,5.50
2018-01-04T10:27:55.935Z,5.60
2018-01-04T10:30:22.491Z,5.50
2018-01-04T10:32:49.801Z,5.60
2018-01-04T10:35:16.304Z,5.60
2018-01-04T10:37:42.884Z,5.70
2018-01-04T10:40:09.353Z,5.70
2018-01-04T10:42:35.999Z,5.70
2018-01-04T10:45:03.278Z,5.80
2018-01-04T10:47:29.834Z,5.80
2018-01-04T10:49:56.394Z,5.80
2018-01-04T10:52:23.608Z,5.80
2018-01-04T10:54:50.887Z,5.80
2018-01-04T10:57:17.414Z,5.70
2018-01-04T10:59:43.922Z,5.70
2018-01-04T11:02:10.394Z,5.70
2018-01-04T11:04:36.893Z,5.70
2018-01-04T11:07:03.363Z,5.70
2018-01-04T11:09:29.859Z,5.70
2018-01-04T11:11:56.373Z,5.70
2018-01-04T11:14:22.856Z,5.70
2018-01-04T11:16:49.394Z,5.70
2018-01-04T11:19:15.898Z,5.70
2018-01-04T11:21:43.126Z,5.80
2018-01-04T11:24:09.618Z,5.80
2018-01-04T11:26:36.202Z,5.90
2018-01-04T11:29:02.759Z,5.90
2018-01-04T11:31:30.033Z,6.00
2018-01-04T11:33:57.307Z,6.00
2018-01-04T11:36:24.581Z,6.00
2018-01-04T11:38:51.858Z,6.00
2018-01-04T11:41:19.130Z,6.00
2018-01-04T11:43:46.364Z,6.00
2018-01-04T11:46:13.020Z,6.00
2018-01-04T11:48:39.505Z,6.00
2018-01-04T11:51:06.797Z,6.00
2018-01-04T11:53:34.071Z,5.90
2018-01-04T11:56:01.348Z,5.90
2018-01-04T11:58:28.560Z,6.00
2018-01-04T12:00:55.060Z,5.90
2018-01-04T12:03:22.454Z,6.00
2018-01-04T12:05:49.738Z,6.10
2018-01-04T12:08:16.286Z,6.00
2018-01-04T12:10:43.505Z,6.10
2018-01-04T12:13:10.029Z,6.10
2018-01-04T12:15:36.514Z,6.10
2018-01-04T12:18:03.025Z,6.10
2018-01-04T12:20:30.407Z,6.10
2018-01-04T12:22:57.690Z,6.20
2018-01-04T12:25:24.726Z,6.10
2018-01-04T12:27:51.414Z,6.20
2018-01-04T12:30:17.977Z,6.30
2018-01-04T12:32:44.422Z,6.30
2018-01-04T12:35:11.702Z,6.30
2018-01-04T12:37:43.454Z,6.30
2018-01-04T12:40:09.921Z,6.30
2018-01-04T12:42:37.139Z,6.30
2018-01-04T12:45:03.699Z,6.30
2018-01-04T12:47:30.183Z,6.30
2018-01-04T12:49:56.685Z,6.30
2018-01-04T12:52:23.190Z,6.30
2018-01-04T12:54:49.675Z,6.20
2018-01-04T12:57:16.173Z,6.20
2018-01-04T12:59:42.684Z,6.20
2018-01-04T13:02:09.190Z,6.20
2018-01-04T13:04:35.671Z,6.20
2018-01-04T13:07:02.179Z,6.10
2018-01-04T13:09:28.675Z,6.10
2018-01-04T13:11:55.159Z,6.10
2018-01-04T13:14:21.663Z,6.10
2018-01-04T13:16:48.191Z,6.10
2018-01-04T13:19:15.404Z,6.10
2018-01-04T13:21:41.940Z,6.10
2018-01-04T13:24:08.566Z,6.10
2018-01-04T13:26:35.104Z,6.10
2018-01-04T13:29:01.749Z,6.10
2018-01-04T13:31:29.195Z,6.00
2018-01-04T13:33:56.549Z,6.00
2018-01-04T13:36:23.185Z,6.00
2018-01-04T13:38:49.719Z,5.90
2018-01-04T13:41:16.359Z,5.90
2018-01-04T13:43:43.203Z,5.90
2018-01-04T13:46:10.552Z,5.90
2018-01-04T13:48:37.296Z,5.90
2018-01-04T13:51:04.034Z,6.00
2018-01-04T13:53:30.671Z,6.00
2018-01-04T13:55:58.023Z,6.00
2018-01-04T13:58:24.660Z,6.00
2018-01-04T14:00:51.297Z,6.00
2018-01-04T14:03:17.934Z,6.00
2018-01-04T14:05:45.288Z,6.00
2018-01-04T14:08:12.642Z,6.00
2018-01-04T14:10:39.176Z,6.00
2018-01-04T14:13:05.916Z,6.00
2018-01-04T14:15:32.553Z,6.00
2018-01-04T14:17:59.905Z,6.00
2018-01-04T14:20:26.544Z,6.00
2018-01-04T14:22:53.078Z,6.00
2018-01-04T14:25:19.716Z,6.00
2018-01-04T14:27:47.683Z,5.90
2018-01-04T14:30:14.225Z,5.90
2018-01-04T14:32:40.957Z,5.80
2018-01-04T14:35:07.595Z,5.80
2018-01-04T14:37:34.130Z,5.70
2018-01-04T14:40:00.868Z,5.70
2018-01-04T14:42:27.813Z,5.70
2018-01-04T14:44:54.756Z,5.70
2018-01-04T14:47:24.980Z,5.70
2018-01-04T14:49:51.716Z,5.70
2018-01-04T14:52:18.558Z,5.70
2018-01-04T14:54:45.197Z,5.70
2018-01-04T14:57:11.751Z,5.80
2018-01-04T14:59:38.573Z,5.80
2018-01-04T15:02:05.517Z,5.80
2018-01-04T15:04:32.973Z,5.90
2018-01-04T15:06:59.610Z,5.90
2018-01-04T15:09:26.343Z,5.90
2018-01-04T15:11:53.190Z,5.90
2018-01-04T15:14:19.933Z,5.80
2018-01-04T15:16:47.583Z,5.80
2018-01-04T15:19:14.422Z,5.80
2018-01-04T15:21:41.378Z,5.80
2018-01-04T15:24:08.118Z,5.70
2018-01-04T15:26:34.876Z,5.70
2018-01-04T15:29:01.800Z,5.70
2018-01-04T15:31:29.364Z,5.60
2018-01-04T15:33:56.305Z,5.60
2018-01-04T15:36:23.043Z,5.60
2018-01-04T15:38:49.785Z,5.60
2018-01-04T15:41:16.420Z,5.60
2018-01-04T15:43:43.676Z,5.60
2018-01-04T15:46:11.844Z,5.70
2018-01-04T15:48:38.686Z,5.60
2018-01-04T15:51:05.612Z,5.60
2018-01-04T15:53:32.371Z,5.60
2018-01-04T15:55:59.419Z,5.60
2018-01-04T15:58:26.261Z,5.70
2018-01-04T16:00:52.997Z,5.70
2018-01-04T16:03:19.836Z,5.70
2018-01-04T16:05:46.580Z,5.70
2018-01-04T16:08:13.526Z,5.70
2018-01-04T16:10:40.264Z,5.70
2018-01-04T16:13:06.801Z,5.80
2018-01-04T16:15:34.213Z,5.80
2018-01-04T16:18:00.891Z,5.80
2018-01-04T16:20:27.631Z,5.70
2018-01-04T16:22:54.268Z,5.70
2018-01-04T16:25:20.904Z,5.70
2018-01-04T16:27:47.542Z,5.60
2018-01-04T16:30:14.282Z,5.60
2018-01-04T16:32:40.920Z,5.60
2018-01-04T16:35:07.554Z,5.60
2018-01-04T16:37:34.909Z,5.60
2018-01-04T16:40:01.547Z,5.60
2018-01-04T16:42:28.388Z,5.60
2018-01-04T16:44:55.027Z,5.60
2018-01-04T16:47:22.586Z,5.60
2018-01-04T16:49:49.220Z,5.60
2018-01-04T16:52:15.858Z,5.60
2018-01-04T16:54:42.499Z,5.60
2018-01-04T16:57:09.132Z,5.60
2018-01-04T16:59:35.769Z,5.60
2018-01-04T17:02:02.409Z,5.60
2018-01-04T17:04:29.045Z,5.60
2018-01-04T17:06:55.886Z,5.60
2018-01-04T17:09:23.240Z,5.60
2018-01-04T17:11:49.780Z,5.50
2018-01-04T17:14:16.416Z,5.60
2018-01-04T17:16:43.152Z,5.60
2018-01-04T17:19:10.503Z,5.50
2018-01-04T17:21:37.857Z,5.50
2018-01-04T17:24:04.498Z,5.50
2018-01-04T17:26:31.242Z,5.50
2018-01-04T17:28:57.878Z,5.50
2018-01-04T17:31:25.430Z,5.40
2018-01-04T17:33:52.071Z,5.40
2018-01-04T17:36:18.724Z,5.40
2018-01-04T17:38:45.342Z,5.40
2018-01-04T17:41:12.695Z,5.50
2018-01-04T17:43:39.331Z,5.40
2018-01-04T17:46:05.970Z,5.50
2018-01-04T17:48:32.627Z,5.40
2018-01-04T17:50:59.247Z,5.40
2018-01-04T17:53:25.826Z,5.40
2018-01-04T17:55:53.132Z,5.30
2018-01-04T17:58:19.768Z,5.30
2018-01-04T18:00:46.405Z,5.30
2018-01-04T18:03:13.113Z,5.30
2018-01-04T18:05:39.679Z,5.30
2018-01-04T18:08:06.420Z,5.20
2018-01-04T18:10:33.261Z,5.20
2018-01-04T18:13:00.718Z,5.10
2018-01-04T18:15:28.582Z,5.10
2018-01-04T18:17:56.230Z,5.10
2018-01-04T18:20:22.880Z,5.00
2018-01-04T18:22:50.439Z,5.00
2018-01-04T18:25:18.003Z,5.00
2018-01-04T18:27:45.562Z,4.90
2018-01-04T18:30:13.629Z,4.90
2018-01-04T18:32:41.382Z,4.90
2018-01-04T18:35:09.258Z,4.90
2018-01-04T18:37:37.129Z,4.90
2018-01-04T18:40:03.967Z,4.90
2018-01-04T18:42:31.114Z,4.90
2018-01-04T18:44:58.570Z,4.90
2018-01-04T18:47:25.411Z,4.90
2018-01-04T18:49:52.051Z,4.80
2018-01-04T18:52:19.200Z,4.80
2018-01-04T18:54:45.835Z,4.80
2018-01-04T18:57:13.586Z,4.90
2018-01-04T18:59:40.338Z,4.90
2018-01-04T19:02:07.384Z,4.90
2018-01-04T19:04:34.229Z,4.90
2018-01-04T19:07:01.687Z,4.90
2018-01-04T19:09:29.038Z,4.90
2018-01-04T19:11:56.393Z,4.90
2018-01-04T19:14:23.234Z,4.90
2018-01-04T19:16:49.974Z,4.90
2018-01-04T19:19:16.800Z,5.00
2018-01-04T19:21:43.649Z,5.00
2018-01-04T19:24:10.394Z,5.00
2018-01-04T19:26:37.032Z,5.00
2018-01-04T19:29:04.591Z,5.00
2018-01-04T19:31:31.436Z,5.00
2018-01-04T19:33:58.069Z,5.00
2018-01-04T19:36:24.692Z,5.10
2018-01-04T19:38:51.450Z,5.10
2018-01-04T19:41:18.389Z,5.20
2018-01-04T19:43:45.029Z,5.30
2018-01-04T19:46:12.380Z,5.30
2018-01-04T19:48:39.117Z,5.40
2018-01-04T19:51:05.861Z,5.50
2018-01-04T19:53:32.599Z,5.50
2018-01-04T19:55:59.440Z,5.60
2018-01-04T19:58:26.065Z,5.60
2018-01-04T20:00:53.023Z,5.70
2018-01-04T20:03:19.965Z,5.70
2018-01-04T20:05:46.606Z,5.80
2018-01-04T20:08:13.322Z,5.80
2018-01-04T20:10:40.288Z,5.90
2018-01-04T20:13:07.437Z,5.90
2018-01-04T20:15:35.059Z,5.90
2018-01-04T20:18:02.658Z,5.90
2018-01-04T20:20:29.292Z,5.90
2018-01-04T20:22:57.773Z,5.90
2018-01-04T20:25:24.921Z,5.90
2018-01-04T20:27:51.667Z,6.00
2018-01-04T20:30:18.590Z,6.00
2018-01-04T20:32:45.760Z,6.00
2018-01-04T20:35:12.596Z,6.00
2018-01-04T20:37:39.234Z,6.00
2018-01-04T20:40:06.793Z,6.10
2018-01-04T20:42:33.735Z,6.10
2018-01-04T20:45:07.337Z,6.10
2018-01-04T20:47:34.997Z,6.20
2018-01-04T20:50:01.840Z,6.20
2018-01-04T20:52:29.091Z,6.20
2018-01-04T20:54:56.652Z,6.20
2018-01-04T20:57:23.597Z,6.20
2018-01-04T20:59:50.335Z,6.30
2018-01-04T21:02:16.868Z,6.30
2018-01-04T21:04:43.505Z,6.30
2018-01-04T21:07:10.859Z,6.30
2018-01-04T21:09:37.425Z,6.30
2018-01-04T21:12:04.034Z,6.40
2018-01-04T21:14:30.669Z,6.40
2018-01-04T21:16:58.025Z,6.50
2018-01-04T21:19:24.574Z,6.40
2018-01-04T21:21:51.194Z,6.50
2018-01-04T21:24:17.932Z,6.50
2018-01-04T21:26:44.571Z,6.50
2018-01-04T21:29:11.207Z,6.60
2018-01-04T21:31:37.847Z,6.50
2018-01-04T21:34:04.487Z,6.50
2018-01-04T21:36:31.203Z,6.50
2018-01-04T21:38:57.798Z,6.50
2018-01-04T21:41:24.392Z,6.50
2018-01-04T21:43:51.031Z,6.50
2018-01-04T21:46:17.770Z,6.60
2018-01-04T21:48:45.123Z,6.60
2018-01-04T21:51:11.863Z,6.60
2018-01-04T21:53:38.502Z,6.60
2018-01-04T21:56:05.447Z,6.60
2018-01-04T21:58:32.181Z,6.60
2018-01-04T22:00:58.819Z,6.60
2018-01-04T22:03:26.520Z,6.60
2018-01-04T22:05:53.219Z,6.60
2018-01-04T22:08:19.856Z,6.50
2018-01-04T22:10:47.418Z,6.50
2018-01-04T22:13:13.951Z,6.50
2018-01-04T22:15:40.587Z,6.60
2018-01-04T22:18:07.225Z,6.60
2018-01-04T22:20:34.578Z,6.70
2018-01-04T22:23:01.216Z,6.70
2018-01-04T22:25:27.852Z,6.70
2018-01-04T22:27:54.492Z,6.80
2018-01-04T22:30:21.333Z,6.80
2018-01-04T22:32:48.787Z,6.90
2018-01-04T22:35:15.529Z,6.90
2018-01-04T22:37:42.164Z,6.90
2018-01-04T22:40:08.894Z,6.90
2018-01-04T22:42:35.745Z,6.90
2018-01-04T22:45:02.591Z,6.90
2018-01-04T22:47:29.736Z,6.90
2018-01-04T22:49:57.090Z,7.00
2018-01-04T22:52:24.649Z,7.00
2018-01-04T22:54:51.506Z,7.00
2018-01-04T22:57:18.948Z,7.10
2018-01-04T22:59:45.792Z,7.10
2018-01-04T23:02:12.629Z,7.10
2018-01-04T23:04:39.370Z,7.10
2018-01-04T23:07:06.928Z,7.20
2018-01-04T23:09:33.878Z,7.10
2018-01-04T23:12:00.601Z,7.20
2018-01-04T23:14:27.455Z,7.10
2018-01-04T23:16:55.115Z,6.90
2018-01-04T23:19:21.860Z,6.90
2018-01-04T23:21:48.594Z,6.90
2018-01-04T23:24:15.334Z,6.80
2018-01-04T23:26:42.176Z,6.80
2018-01-04T23:29:08.917Z,6.70
2018-01-04T23:31:35.556Z,6.70
2018-01-04T23:34:02.385Z,6.70
2018-01-04T23:36:30.047Z,6.70
2018-01-04T23:38:56.797Z,6.60
2018-01-04T23:41:23.534Z,6.60
2018-01-04T23:43:50.360Z,6.60
2018-01-04T23:46:17.016Z,6.60
2018-01-04T23:48:43.752Z,6.50
2018-01-04T23:51:10.493Z,6.50
2018-01-04T23:53:37.129Z,6.50
2018-01-04T23:56:04.074Z,6.60
2018-01-04T23:58:31.018Z,6.70
